createdAt,value
2022-08-02T00:02:26.325Z,42.54
2022-08-02T00:04:59.421Z,42.51
2022-08-02T00:07:38.986Z,42.71
2022-08-02T00:10:10.626Z,42.82
2022-08-02T00:12:43.950Z,43.11
2022-08-02T00:15:17.156Z,43.66
2022-08-02T00:17:50.238Z,43.67
2022-08-02T00:20:23.546Z,43.87
2022-08-02T00:22:56.847Z,44.31
2022-08-02T00:25:30.048Z,44.56
2022-08-02T00:28:03.349Z,44.47
2022-08-02T00:30:36.888Z,44.54
2022-08-02T00:33:10.117Z,44.51
2022-08-02T00:35:43.604Z,44.59
2022-08-02T00:38:17.434Z,44.66
2022-08-02T00:40:55.313Z,45.05
2022-08-02T00:43:26.549Z,45.10
2022-08-02T00:46:03.651Z,44.98
2022-08-02T00:48:34.793Z,45.34
2022-08-02T00:51:08.236Z,45.20
2022-08-02T00:53:42.068Z,45.50
2022-08-02T00:56:15.281Z,45.47
2022-08-02T00:58:48.480Z,45.46
2022-08-02T01:01:23.396Z,45.60
2022-08-02T01:03:56.846Z,45.61
2022-08-02T01:06:31.856Z,45.86
2022-08-02T01:09:06.037Z,45.88
2022-08-02T01:11:39.875Z,45.76
2022-08-02T01:14:15.002Z,45.95
2022-08-02T01:16:51.656Z,45.83
2022-08-02T01:19:34.706Z,46.16
2022-08-02T01:22:59.424Z,45.97
2022-08-02T01:25:18.875Z,46.11
2022-08-02T01:28:14.760Z,45.85
2022-08-02T01:30:51.884Z,46.12
2022-08-02T01:33:27.611Z,46.01
2022-08-02T01:36:03.212Z,46.83
2022-08-02T01:38:39.727Z,46.77
2022-08-02T01:41:16.382Z,46.74
2022-08-02T01:43:52.447Z,47.31
2022-08-02T01:46:27.431Z,47.13
2022-08-02T01:49:08.539Z,46.98
2022-08-02T01:52:00.320Z,47.03
2022-08-02T01:54:35.530Z,47.50
2022-08-02T01:57:11.757Z,47.33
2022-08-02T01:59:47.304Z,47.28
2022-08-02T02:02:23.467Z,47.62
2022-08-02T02:04:57.870Z,47.80
2022-08-02T02:07:33.492Z,48.04
2022-08-02T02:10:09.467Z,47.95
2022-08-02T02:12:44.374Z,48.02
2022-08-02T02:15:20.154Z,48.25
2022-08-02T02:18:12.584Z,48.39
2022-08-02T02:20:34.065Z,48.64
2022-08-02T02:23:08.069Z,48.63
2022-08-02T02:25:46.715Z,49.30
2022-08-02T02:28:22.303Z,49.42
2022-08-02T02:30:58.474Z,49.31
2022-08-02T02:33:35.038Z,49.42
2022-08-02T02:36:09.480Z,49.77
2022-08-02T02:38:44.140Z,49.70
2022-08-02T02:41:20.486Z,49.84
2022-08-02T02:43:55.167Z,50.34
2022-08-02T02:46:31.024Z,50.02
2022-08-02T02:49:04.801Z,50.09
2022-08-02T02:51:39.927Z,50.39
2022-08-02T02:54:30.875Z,50.25
2022-08-02T02:56:54.585Z,50.10
2022-08-02T02:59:28.891Z,50.02
2022-08-02T03:02:03.433Z,49.73
2022-08-02T03:04:55.922Z,49.72
2022-08-02T03:07:12.586Z,49.89
2022-08-02T03:09:50.683Z,49.71
2022-08-02T03:12:21.152Z,49.43
2022-08-02T03:14:55.844Z,49.40
2022-08-02T03:17:39.888Z,49.39
2022-08-02T03:20:16.475Z,49.38
2022-08-02T03:22:50.304Z,49.28
2022-08-02T03:25:23.470Z,49.17
2022-08-02T03:27:56.850Z,49.02
2022-08-02T03:30:30.245Z,49.18
2022-08-02T03:33:03.482Z,49.22
2022-08-02T03:35:37.490Z,49.22
2022-08-02T03:38:11.904Z,49.23
2022-08-02T03:40:46.506Z,49.25
2022-08-02T03:43:20.505Z,48.99
2022-08-02T03:45:54.327Z,48.72
2022-08-02T03:48:33.713Z,48.78
2022-08-02T03:51:04.181Z,48.61
2022-08-02T03:53:37.839Z,48.57
2022-08-02T03:56:12.319Z,48.45
2022-08-02T03:58:49.259Z,48.50
2022-08-02T04:01:21.580Z,48.53
2022-08-02T04:03:55.177Z,48.58
2022-08-02T04:06:28.449Z,48.56
2022-08-02T04:09:03.578Z,48.50
2022-08-02T04:11:38.132Z,48.42
2022-08-02T04:14:14.352Z,48.68
2022-08-02T04:16:49.837Z,48.42
2022-08-02T04:19:25.972Z,48.29
2022-08-02T04:22:02.262Z,48.30
2022-08-02T04:24:38.483Z,48.34
2022-08-02T04:27:51.219Z,48.09
2022-08-02T04:29:49.440Z,48.11
2022-08-02T04:32:23.456Z,48.09
2022-08-02T04:37:32.845Z,48.04
2022-08-02T04:40:08.983Z,48.44
2022-08-02T04:42:42.651Z,48.29
2022-08-02T04:45:17.089Z,47.86
2022-08-02T04:48:06.472Z,47.56
2022-08-02T04:50:35.537Z,47.72
2022-08-02T04:53:09.063Z,47.48
2022-08-02T04:55:42.567Z,46.90
2022-08-02T04:58:39.576Z,46.63
2022-08-02T05:00:52.290Z,46.42
2022-08-02T05:03:25.583Z,46.32
2022-08-02T05:05:58.672Z,46.51
2022-08-02T05:08:32.143Z,45.94
2022-08-02T05:11:05.293Z,45.27
2022-08-02T05:13:57.496Z,45.18
2022-08-02T05:16:13.346Z,44.96
2022-08-02T05:18:46.820Z,44.83
2022-08-02T05:21:20.678Z,44.27
2022-08-02T05:23:56.429Z,44.04
2022-08-02T05:26:29.643Z,43.52
2022-08-02T05:29:03.790Z,43.03
2022-08-02T05:31:36.779Z,42.90
2022-08-02T05:34:12.184Z,42.63
2022-08-02T05:36:45.111Z,42.29
2022-08-02T05:39:19.746Z,41.83
2022-08-02T05:41:52.834Z,41.68
2022-08-02T05:44:25.759Z,41.23
2022-08-02T05:47:01.024Z,40.93
2022-08-02T05:49:34.290Z,40.53
2022-08-02T05:52:11.335Z,40.13
2022-08-02T05:54:51.106Z,39.28
2022-08-02T05:57:30.386Z,39.28
2022-08-02T06:00:10.199Z,39.77
2022-08-02T06:02:56.582Z,40.13
2022-08-02T06:05:32.709Z,40.08
2022-08-02T06:08:09.446Z,40.08
2022-08-02T06:10:44.759Z,39.81
2022-08-02T06:13:18.201Z,40.30
2022-08-02T06:15:54.002Z,40.51
2022-08-02T06:18:28.849Z,40.09
2022-08-02T06:22:34.858Z,39.34
2022-08-02T06:23:42.510Z,39.17
2022-08-02T06:26:18.263Z,39.11
2022-08-02T06:28:53.537Z,38.75
2022-08-02T06:31:26.860Z,38.78
2022-08-02T06:34:00.280Z,39.06
2022-08-02T06:36:40.412Z,38.56
2022-08-02T06:39:17.932Z,38.67
2022-08-02T06:41:53.566Z,38.35
2022-08-02T06:44:53.083Z,38.16
2022-08-02T06:47:13.027Z,38.05
2022-08-02T06:49:51.963Z,38.33
2022-08-02T06:52:21.403Z,37.83
2022-08-02T06:54:54.372Z,37.81
2022-08-02T06:57:27.576Z,37.67
2022-08-02T07:00:02.976Z,37.07
2022-08-02T07:02:37.913Z,36.80
2022-08-02T07:05:12.163Z,36.93
2022-08-02T07:07:45.321Z,35.62
2022-08-02T07:10:18.757Z,34.51
2022-08-02T07:12:51.933Z,34.01
2022-08-02T07:15:25.262Z,33.68
2022-08-02T07:17:58.342Z,33.02
2022-08-02T07:20:34.641Z,31.10
2022-08-02T07:23:07.706Z,27.99
2022-08-02T07:26:03.078Z,26.65
2022-08-02T07:28:23.713Z,26.51
2022-08-02T07:30:52.704Z,25.00
2022-08-02T07:33:37.558Z,23.95
2022-08-02T07:36:04.817Z,23.94
2022-08-02T07:38:38.183Z,23.73
2022-08-02T07:41:11.214Z,23.47
2022-08-02T07:43:45.812Z,23.94
2022-08-02T07:46:18.816Z,24.19
2022-08-02T07:48:53.717Z,24.39
2022-08-02T07:51:26.909Z,23.80
2022-08-02T07:54:02.178Z,22.83
2022-08-02T07:56:35.047Z,22.82
2022-08-02T07:59:10.002Z,22.59
2022-08-02T08:01:46.154Z,21.41
2022-08-02T08:04:18.204Z,21.21
2022-08-02T08:06:54.204Z,21.38
2022-08-02T08:09:27.452Z,20.76
2022-08-02T08:12:00.443Z,19.73
2022-08-02T08:14:33.704Z,20.60
2022-08-02T08:17:07.557Z,23.36
2022-08-02T08:19:51.731Z,24.15
2022-08-02T08:22:15.825Z,22.98
2022-08-02T08:24:49.265Z,22.27
2022-08-02T08:27:23.683Z,21.82
2022-08-02T08:29:57.266Z,21.75
2022-08-02T08:32:30.439Z,20.50
2022-08-02T08:35:07.047Z,21.91
2022-08-02T08:37:41.141Z,22.58
2022-08-02T08:40:19.308Z,21.07
2022-08-02T08:42:52.519Z,21.30
2022-08-02T08:45:31.604Z,22.09
2022-08-02T08:48:09.430Z,20.66
2022-08-02T08:50:45.950Z,20.66
2022-08-02T08:53:20.516Z,22.33
2022-08-02T08:55:56.667Z,22.88
2022-08-02T08:58:29.980Z,23.40
2022-08-02T09:01:03.851Z,24.47
2022-08-02T09:03:37.297Z,25.09
2022-08-02T09:06:11.030Z,26.32
2022-08-02T09:08:44.502Z,27.36
2022-08-02T09:11:19.398Z,26.81
2022-08-02T09:13:55.093Z,25.69
2022-08-02T09:16:33.796Z,23.79
2022-08-02T09:19:21.416Z,21.99
2022-08-02T09:21:56.321Z,21.04
2022-08-02T09:24:34.305Z,21.24
2022-08-02T09:27:15.118Z,21.57
2022-08-02T09:30:12.599Z,22.67
2022-08-02T09:32:30.005Z,21.66
2022-08-02T09:35:09.895Z,19.04
2022-08-02T09:38:03.201Z,17.78
2022-08-02T09:40:39.851Z,19.97
2022-08-02T09:43:13.448Z,22.37
2022-08-02T09:45:49.036Z,21.86
2022-08-02T09:48:23.748Z,20.28
2022-08-02T09:50:58.929Z,19.70
2022-08-02T09:53:35.111Z,19.35
2022-08-02T09:56:35.053Z,20.47
2022-08-02T09:58:52.039Z,22.04
2022-08-02T10:01:37.439Z,23.51
2022-08-02T10:04:21.697Z,23.73
2022-08-02T10:06:52.498Z,22.05
2022-08-02T10:09:25.940Z,19.37
2022-08-02T10:12:01.249Z,19.67
2022-08-02T10:14:36.398Z,20.29
2022-08-02T10:17:10.426Z,21.10
2022-08-02T10:20:02.675Z,21.68
2022-08-02T10:22:24.397Z,23.43
2022-08-02T10:25:00.427Z,24.21
2022-08-02T10:27:55.471Z,24.58
2022-08-02T10:30:13.477Z,25.42
2022-08-02T10:32:51.735Z,25.49
2022-08-02T10:35:27.096Z,25.80
2022-08-02T10:38:03.957Z,25.67
2022-08-02T10:40:51.530Z,26.09
2022-08-02T10:46:42.296Z,26.74
2022-08-02T10:52:11.545Z,26.27
2022-08-02T10:55:00.995Z,26.15
2022-08-02T10:57:47.074Z,25.90
2022-08-02T11:00:33.265Z,26.18
2022-08-02T11:03:39.420Z,26.30
2022-08-02T11:06:25.198Z,25.07
2022-08-02T11:08:50.567Z,22.60
2022-08-02T11:11:54.096Z,22.65
2022-08-02T11:14:08.970Z,23.26
2022-08-02T11:17:20.793Z,22.92
2022-08-02T11:20:21.102Z,20.70
2022-08-02T11:22:58.481Z,20.78
2022-08-02T11:26:03.179Z,22.21
2022-08-02T11:28:16.342Z,23.03
2022-08-02T11:31:03.074Z,21.12
2022-08-02T11:33:40.445Z,20.17
2022-08-02T11:36:16.300Z,19.81
2022-08-02T11:38:49.690Z,21.15
2022-08-02T11:41:47.304Z,21.76
2022-08-02T11:43:58.771Z,22.31
2022-08-02T11:46:35.731Z,20.85
2022-08-02T11:49:21.276Z,20.22
2022-08-02T11:52:04.079Z,21.48
2022-08-02T11:54:44.122Z,21.68
2022-08-02T11:58:03.797Z,22.36
2022-08-02T12:00:20.087Z,22.65
2022-08-02T12:03:09.934Z,22.79
2022-08-02T12:06:06.561Z,23.51
2022-08-02T12:08:54.675Z,23.41
2022-08-02T12:11:22.825Z,23.38
2022-08-02T12:13:57.649Z,23.31
2022-08-02T12:16:55.355Z,23.85
2022-08-02T12:19:29.712Z,23.30
2022-08-02T12:22:17.507Z,20.50
2022-08-02T12:24:55.185Z,18.71
2022-08-02T12:27:38.565Z,18.15
2022-08-02T12:30:14.974Z,16.98
2022-08-02T12:32:49.693Z,16.54
2022-08-02T12:35:26.402Z,17.00
2022-08-02T12:38:11.588Z,17.84
2022-08-02T12:40:45.998Z,19.84
2022-08-02T12:43:24.800Z,20.65
2022-08-02T12:45:58.917Z,21.90
2022-08-02T12:48:40.371Z,22.03
2022-08-02T12:51:51.130Z,21.88
2022-08-02T12:54:17.694Z,22.49
2022-08-02T12:56:51.925Z,22.06
2022-08-02T13:02:25.740Z,22.72
2022-08-02T13:05:03.186Z,21.62
2022-08-02T13:07:36.358Z,21.76
2022-08-02T13:10:11.740Z,22.65
2022-08-02T13:12:45.376Z,22.59
2022-08-02T13:15:49.546Z,21.97
2022-08-02T13:17:54.656Z,21.32
2022-08-02T13:20:30.341Z,21.45
2022-08-02T13:23:05.597Z,20.06
2022-08-02T13:25:38.828Z,20.63
2022-08-02T13:28:12.042Z,21.41
2022-08-02T13:30:46.409Z,22.82
2022-08-02T13:33:21.482Z,23.66
2022-08-02T13:35:54.507Z,23.52
2022-08-02T13:38:28.191Z,23.56
2022-08-02T13:41:21.268Z,23.45
2022-08-02T13:43:59.463Z,23.80
2022-08-02T13:46:29.785Z,23.88
2022-08-02T13:49:03.171Z,21.80
2022-08-02T13:51:37.307Z,20.61
2022-08-02T13:54:10.986Z,20.36
2022-08-02T13:56:47.055Z,20.44
2022-08-02T13:59:54.448Z,20.93
2022-08-02T14:01:57.304Z,20.22
2022-08-02T14:04:30.912Z,20.57
2022-08-02T14:07:04.186Z,22.10
2022-08-02T14:09:40.513Z,23.19
2022-08-02T14:12:20.688Z,23.43
2022-08-02T14:14:54.035Z,23.11
2022-08-02T14:17:27.648Z,23.05
2022-08-02T14:20:00.754Z,23.25
2022-08-02T14:22:34.379Z,22.67
2022-08-02T14:25:09.665Z,21.03
2022-08-02T14:27:44.694Z,21.09
2022-08-02T14:30:17.946Z,22.33
2022-08-02T17:56:04.134Z,30.97
2022-08-02T17:58:37.457Z,31.47
2022-08-02T18:01:23.698Z,31.87
2022-08-02T18:03:49.214Z,31.82
2022-08-02T18:06:26.207Z,32.05
2022-08-02T18:08:59.837Z,32.29
2022-08-02T18:11:52.541Z,32.04
2022-08-02T18:14:09.306Z,32.12
2022-08-02T18:22:31.098Z,32.12
2022-08-02T18:25:09.323Z,31.99
2022-08-02T18:27:59.550Z,32.12
2022-08-02T18:30:44.510Z,32.66
2022-08-02T18:33:57.199Z,33.73
2022-08-02T18:35:59.949Z,33.90
2022-08-02T18:38:35.445Z,34.22
2022-08-02T18:44:03.974Z,34.45
2022-08-02T18:46:43.225Z,34.33
2022-08-02T18:49:19.768Z,34.29
2022-08-02T18:51:54.243Z,34.10
2022-08-02T18:54:39.063Z,34.18
2022-08-02T18:58:18.989Z,34.51
2022-08-02T19:02:49.570Z,33.54
2022-08-02T19:05:53.259Z,35.35
2022-08-02T19:10:57.335Z,36.33
2022-08-02T19:13:36.895Z,35.86
2022-08-02T19:16:10.365Z,35.51
2022-08-02T19:18:47.742Z,35.49
2022-08-02T19:22:18.266Z,35.92
2022-08-02T19:24:02.097Z,35.61
2022-08-02T19:26:42.083Z,35.77
2022-08-02T19:29:16.552Z,35.97
2022-08-02T19:32:03.839Z,36.20
2022-08-02T19:34:39.426Z,36.12
2022-08-02T19:37:17.595Z,36.46
2022-08-02T19:39:51.234Z,36.89
2022-08-02T19:42:24.930Z,37.21
2022-08-02T19:44:58.160Z,37.31
2022-08-02T19:47:38.535Z,37.34
2022-08-02T19:50:15.134Z,37.82
2022-08-02T19:52:52.909Z,37.67
2022-08-02T19:56:00.035Z,37.57
2022-08-02T19:58:03.437Z,37.54
2022-08-02T20:00:40.075Z,37.35
2022-08-02T20:03:15.879Z,37.75
2022-08-02T20:05:47.927Z,37.91
2022-08-02T20:08:31.685Z,37.88
2022-08-02T20:10:56.338Z,38.11
2022-08-02T20:13:34.743Z,38.30
2022-08-02T20:16:06.284Z,38.28
2022-08-02T20:18:40.428Z,38.19
2022-08-02T20:21:34.108Z,38.44
2022-08-02T20:23:49.201Z,38.54
